Time;durP1;ratioP1;P1;durP2;ratioP2;P2;SDS_P1;SDS_P2;PMS_P1;PMS_P2;Temp;Humidity;BMP_temperature;BMP_pressure;BME280_temperature;BME280_humidity;BME280_pressure;Samples;Min_cycle;Max_cycle;Signal;HPM_P1;HPM_P2
2021/06/05 00:02:25;;;;;;;8.23;7.43;;;21.70;77.90;;;;;;5093831;28;20024;-78
2021/06/05 00:04:56;;;;;;;8.10;6.90;;;21.70;78.20;;;;;;5094150;28;20040;-78
2021/06/05 00:07:23;;;;;;;14.20;7.78;;;21.60;78.60;;;;;;5072732;28;20021;-78
2021/06/05 00:09:49;;;;;;;8.27;6.75;;;21.60;78.90;;;;;;5073879;28;20072;-78
2021/06/05 00:12:18;;;;;;;11.23;7.47;;;21.60;79.30;;;;;;5087606;28;20567;-78
2021/06/05 00:14:44;;;;;;;7.82;7.05;;;21.40;80.10;;;;;;5093504;28;20031;-78
2021/06/05 00:17:10;;;;;;;8.90;7.05;;;21.40;80.50;;;;;;5093860;28;20031;-78
2021/06/05 00:19:35;;;;;;;7.88;7.18;;;21.40;80.70;;;;;;5094175;28;20387;-78
2021/06/05 00:22:01;;;;;;;9.70;7.43;;;21.40;80.40;;;;;;5093704;28;20584;-77
2021/06/05 00:24:27;;;;;;;8.60;7.35;;;21.50;80.20;;;;;;5094101;28;20020;-78
2021/06/05 00:26:53;;;;;;;11.93;6.88;;;21.40;80.50;;;;;;5093573;28;20364;-78
2021/06/05 00:29:20;;;;;;;10.75;7.63;;;21.20;81.40;;;;;;5093835;28;20077;-78
2021/06/05 00:31:46;;;;;;;9.15;7.63;;;21.10;82.30;;;;;;5093637;28;20021;-78
2021/06/05 00:34:13;;;;;;;8.15;7.35;;;21.10;82.90;;;;;;5092854;28;20024;-78
2021/06/05 00:36:38;;;;;;;9.90;7.90;;;21.00;83.20;;;;;;5093554;28;20020;-78
2021/06/05 00:39:06;;;;;;;8.75;7.35;;;20.90;83.50;;;;;;5093792;28;20020;-78
2021/06/05 00:41:32;;;;;;;9.27;8.23;;;21.00;83.50;;;;;;5085763;28;20027;-78
2021/06/05 00:44:01;;;;;;;11.35;8.48;;;20.90;83.60;;;;;;5073575;28;20031;-78
2021/06/05 00:46:30;;;;;;;9.23;7.32;;;21.00;83.50;;;;;;5073288;28;20059;-78
2021/06/05 00:48:56;;;;;;;8.90;7.80;;;21.00;83.10;;;;;;5073375;28;20112;-78
2021/06/05 00:51:44;;;;;;;9.95;8.23;;;21.00;83.00;;;;;;5073244;28;20017;-78
2021/06/05 00:54:12;;;;;;;13.07;8.50;;;21.10;83.20;;;;;;5072605;28;20488;-78
2021/06/05 00:56:43;;;;;;;11.40;7.90;;;21.10;83.20;;;;;;5073306;28;20028;-78
2021/06/05 00:59:09;;;;;;;10.40;8.15;;;21.10;83.50;;;;;;5073179;28;20025;-78
2021/06/05 01:01:36;;;;;;;11.43;7.93;;;21.10;83.50;;;;;;5073072;28;20024;-78
2021/06/05 01:04:01;;;;;;;13.30;7.72;;;21.00;83.80;;;;;;5071715;28;20066;-78
2021/06/05 01:06:50;;;;;;;12.57;8.43;;;20.90;84.70;;;;;;5073183;28;20033;-78
2021/06/05 01:09:35;;;;;;;9.73;8.18;;;20.90;85.50;;;;;;5073126;28;20016;-78
2021/06/05 01:12:10;;;;;;;11.40;7.95;;;20.70;84.90;;;;;;5084672;28;20028;-78
2021/06/05 01:14:51;;;;;;;13.20;8.20;;;20.80;85.10;;;;;;5093205;28;20028;-78
2021/06/05 01:17:33;;;;;;;9.68;8.13;;;20.80;85.00;;;;;;5091787;28;20078;-78
2021/06/05 01:20:11;;;;;;;10.65;8.27;;;20.80;84.70;;;;;;5092904;28;20059;-78
2021/06/05 01:23:13;;;;;;;12.07;7.85;;;20.90;84.50;;;;;;5092738;28;20044;-77
2021/06/05 01:26:13;;;;;;;9.75;7.75;;;20.90;84.40;;;;;;5092953;28;20030;-78
2021/06/05 01:28:54;;;;;;;10.80;8.15;;;21.00;84.60;;;;;;5093008;28;20107;-78
2021/06/05 01:31:29;;;;;;;8.20;7.47;;;20.90;84.80;;;;;;5091116;28;20115;-78
2021/06/05 01:33:56;;;;;;;10.95;7.72;;;20.90;84.80;;;;;;5092034;28;20032;-78
2021/06/05 01:36:24;;;;;;;9.82;8.05;;;20.90;84.70;;;;;;5091795;28;20020;-78
2021/06/05 01:38:53;;;;;;;8.52;7.72;;;21.00;84.90;;;;;;5092989;28;20020;-78
2021/06/05 01:41:21;;;;;;;10.07;7.47;;;20.90;85.10;;;;;;5091348;28;20031;-78
2021/06/05 01:43:48;;;;;;;9.02;7.95;;;20.90;85.10;;;;;;5091554;28;20052;-78
2021/06/05 01:46:16;;;;;;;10.05;8.18;;;20.90;85.20;;;;;;5096832;28;20087;-78
2021/06/05 01:48:42;;;;;;;8.00;7.20;;;20.90;85.30;;;;;;5096741;28;20028;-78
2021/06/05 01:51:13;;;;;;;10.80;7.07;;;20.90;85.30;;;;;;5095634;28;20028;-78
2021/06/05 01:53:48;;;;;;;8.25;7.35;;;20.90;85.50;;;;;;5109967;28;20055;-78
2021/06/05 01:56:33;;;;;;;10.43;8.05;;;20.90;86.10;;;;;;5097415;28;20028;-78
2021/06/05 01:58:59;;;;;;;12.88;7.97;;;20.80;85.60;;;;;;5096660;28;20020;-78
2021/06/05 02:01:26;;;;;;;12.50;8.48;;;20.80;85.80;;;;;;5096412;28;20527;-78
2021/06/05 02:03:52;;;;;;;10.65;7.80;;;20.80;86.10;;;;;;5076281;28;20503;-78
2021/06/05 02:06:20;;;;;;;8.82;7.78;;;20.80;85.70;;;;;;5090990;28;20024;-78
2021/06/05 02:08:46;;;;;;;8.95;8.05;;;20.80;85.90;;;;;;5096605;28;20020;-78
2021/06/05 02:11:14;;;;;;;9.05;7.30;;;20.80;86.00;;;;;;5091404;28;20427;-78
2021/06/05 02:13:47;;;;;;;11.15;7.30;;;20.90;85.90;;;;;;5084273;28;20028;-78
2021/06/05 02:16:37;;;;;;;8.57;7.70;;;20.90;85.80;;;;;;5096042;28;20094;-78
2021/06/05 02:19:12;;;;;;;8.85;7.65;;;20.80;86.10;;;;;;5096488;28;20499;-78
2021/06/05 02:21:42;;;;;;;10.95;7.65;;;20.80;86.00;;;;;;5094869;28;20032;-78
2021/06/05 02:24:13;;;;;;;14.25;7.38;;;20.80;85.90;;;;;;5095095;28;20016;-78
2021/06/05 02:26:42;;;;;;;8.68;7.43;;;20.90;86.00;;;;;;5096264;28;20024;-78
2021/06/05 02:29:10;;;;;;;8.45;7.53;;;20.90;86.00;;;;;;5096072;28;20012;-78
2021/06/05 02:31:38;;;;;;;8.10;7.30;;;20.90;86.10;;;;;;5095675;28;20032;-78
2021/06/05 02:34:06;;;;;;;8.40;7.53;;;20.90;85.90;;;;;;5096102;28;20027;-78
2021/06/05 02:36:32;;;;;;;7.78;6.88;;;20.90;86.10;;;;;;5096144;28;20107;-78
2021/06/05 02:38:58;;;;;;;7.65;6.85;;;20.90;86.20;;;;;;5096067;28;20386;-78
2021/06/05 02:41:25;;;;;;;7.85;7.05;;;20.90;86.00;;;;;;5095599;28;20028;-78
2021/06/05 02:43:55;;;;;;;7.43;6.72;;;21.00;85.40;;;;;;5094263;28;20023;-78
2021/06/05 02:46:25;;;;;;;8.60;7.18;;;21.00;85.60;;;;;;5095775;28;20052;-78
2021/06/05 02:48:59;;;;;;;6.93;6.25;;;21.00;85.60;;;;;;5095942;28;20082;-78
2021/06/05 02:51:32;;;;;;;8.73;7.00;;;21.00;86.10;;;;;;5095683;28;20073;-78
2021/06/05 02:53:58;;;;;;;15.48;7.35;;;21.00;85.80;;;;;;5119938;27;20039;-78
2021/06/05 02:56:25;;;;;;;7.65;6.95;;;20.90;85.80;;;;;;5089990;28;20024;-78
2021/06/05 02:58:51;;;;;;;7.60;6.63;;;21.00;85.70;;;;;;5095551;28;20024;-78
2021/06/05 03:01:17;;;;;;;8.02;6.60;;;21.00;85.80;;;;;;5094181;28;20040;-78
2021/06/05 03:03:44;;;;;;;7.95;6.57;;;21.00;85.80;;;;;;5095733;28;20020;-78
2021/06/05 03:06:10;;;;;;;11.65;7.53;;;21.00;85.80;;;;;;5095516;28;20529;-78
2021/06/05 03:08:38;;;;;;;9.07;6.85;;;21.00;85.90;;;;;;5095434;28;20483;-78
2021/06/05 03:11:09;;;;;;;7.45;6.70;;;21.00;85.90;;;;;;5095161;28;20055;-78
2021/06/05 03:13:36;;;;;;;7.78;6.63;;;21.00;86.10;;;;;;5093947;28;20119;-78
2021/06/05 03:16:02;;;;;;;8.13;7.32;;;21.00;86.30;;;;;;5095391;28;20434;-78
2021/06/05 03:18:28;;;;;;;7.30;6.65;;;21.00;86.30;;;;;;5093899;28;20020;-78
2021/06/05 03:20:56;;;;;;;9.60;6.28;;;21.00;86.40;;;;;;5095235;28;20028;-78
2021/06/05 03:23:25;;;;;;;6.88;6.20;;;21.00;86.30;;;;;;5095176;28;20492;-78
2021/06/05 03:25:51;;;;;;;10.23;7.25;;;21.10;86.40;;;;;;5095071;28;20032;-78
2021/06/05 03:28:19;;;;;;;6.90;6.25;;;21.10;86.10;;;;;;5095236;28;20031;-78
2021/06/05 03:30:45;;;;;;;7.47;6.38;;;21.10;86.20;;;;;;5095042;28;20035;-78
2021/06/05 03:33:11;;;;;;;6.90;6.22;;;21.10;86.10;;;;;;5094998;28;20028;-78
2021/06/05 03:35:37;;;;;;;8.15;6.50;;;21.10;86.30;;;;;;5093606;28;20073;-78
2021/06/05 03:38:06;;;;;;;11.10;7.22;;;21.10;87.00;;;;;;5094883;28;20435;-78
2021/06/05 03:40:32;;;;;;;8.35;6.80;;;21.10;86.80;;;;;;5094711;28;20024;-78
2021/06/05 03:42:59;;;;;;;8.95;6.10;;;21.10;86.90;;;;;;5093351;28;20052;-78
2021/06/05 03:45:26;;;;;;;10.65;5.75;;;21.10;87.10;;;;;;5094747;28;20020;-78
2021/06/05 03:47:54;;;;;;;6.80;6.20;;;21.10;87.40;;;;;;5094580;28;20506;-78
2021/06/05 03:50:25;;;;;;;7.63;6.22;;;21.00;87.50;;;;;;5093860;28;20608;-78
2021/06/05 03:52:51;;;;;;;8.90;6.72;;;21.10;87.70;;;;;;5093085;28;20070;-78
2021/06/05 03:55:18;;;;;;;8.50;6.57;;;21.00;87.90;;;;;;5094565;28;20024;-78
2021/06/05 03:57:44;;;;;;;6.70;6.05;;;21.00;88.40;;;;;;5093038;28;20023;-78
2021/06/05 04:00:18;;;;;;;7.90;6.57;;;21.00;88.40;;;;;;5094415;28;20058;-78
2021/06/05 04:02:44;;;;;;;8.93;6.93;;;21.00;88.80;;;;;;5094232;28;20031;-78
2021/06/05 04:05:11;;;;;;;6.78;6.18;;;20.90;89.10;;;;;;5094174;28;20028;-78
2021/06/05 04:07:37;;;;;;;8.18;6.63;;;20.90;89.40;;;;;;5094200;28;20032;-78
2021/06/05 04:10:05;;;;;;;10.65;7.10;;;20.80;90.20;;;;;;5094161;28;20020;-78
2021/06/05 04:12:31;;;;;;;9.88;6.35;;;20.80;90.00;;;;;;5077929;28;20115;-78
2021/06/05 04:14:56;;;;;;;6.25;5.72;;;20.70;90.20;;;;;;5073934;28;20063;-78
2021/06/05 04:17:22;;;;;;;9.43;6.70;;;20.70;90.30;;;;;;5078557;28;20074;-78
2021/06/05 04:19:48;;;;;;;7.90;6.38;;;20.70;90.30;;;;;;5094091;28;20024;-78
2021/06/05 04:22:14;;;;;;;7.13;6.45;;;20.70;90.50;;;;;;5092484;28;20449;-78
2021/06/05 04:24:39;;;;;;;10.57;6.47;;;20.70;90.70;;;;;;5093821;28;20039;-78
2021/06/05 04:27:07;;;;;;;8.52;6.60;;;20.70;90.60;;;;;;5092762;28;20024;-78
2021/06/05 04:29:33;;;;;;;7.47;6.75;;;20.70;90.70;;;;;;5093596;28;20441;-78
2021/06/05 04:32:00;;;;;;;11.18;6.85;;;20.70;90.50;;;;;;5093772;28;20104;-78
2021/06/05 04:34:25;;;;;;;8.38;6.45;;;20.70;90.40;;;;;;5093569;28;20539;-78
2021/06/05 04:36:52;;;;;;;7.38;6.68;;;20.80;90.40;;;;;;5093626;28;20111;-78
2021/06/05 04:39:19;;;;;;;7.95;7.15;;;20.80;90.20;;;;;;5093558;28;20024;-77
2021/06/05 04:41:45;;;;;;;7.63;6.78;;;20.90;90.30;;;;;;5093233;28;20024;-78
2021/06/05 04:44:11;;;;;;;7.30;6.45;;;20.80;90.40;;;;;;5093603;28;20383;-78
2021/06/05 04:46:37;;;;;;;7.47;6.15;;;20.90;90.40;;;;;;5093303;28;20032;-78
2021/06/05 04:49:04;;;;;;;12.75;7.25;;;20.90;90.40;;;;;;5093317;28;20020;-78
2021/06/05 04:51:30;;;;;;;8.75;6.65;;;20.90;90.30;;;;;;5093400;28;20028;-78
2021/06/05 04:53:57;;;;;;;7.10;6.50;;;20.90;90.50;;;;;;5093470;28;20718;-78
2021/06/05 04:56:31;;;;;;;9.43;7.25;;;20.80;90.50;;;;;;5093346;28;20506;-78
2021/06/05 04:58:57;;;;;;;9.02;7.40;;;20.80;90.60;;;;;;5092886;28;20032;-78
2021/06/05 05:01:23;;;;;;;7.28;6.60;;;20.80;90.60;;;;;;5093194;28;20023;-78
2021/06/05 05:03:48;;;;;;;11.50;7.28;;;20.90;90.50;;;;;;5093269;28;20028;-78
2021/06/05 05:06:14;;;;;;;8.02;6.97;;;20.90;90.50;;;;;;5093080;28;20026;-78
2021/06/05 05:08:40;;;;;;;8.20;7.32;;;20.90;90.50;;;;;;5093302;28;20103;-78
2021/06/05 05:11:06;;;;;;;7.55;6.82;;;20.90;90.70;;;;;;5091777;28;20120;-78
2021/06/05 05:13:34;;;;;;;9.48;7.78;;;21.00;90.70;;;;;;5092807;28;20376;-78
2021/06/05 05:16:02;;;;;;;10.65;6.82;;;21.00;90.40;;;;;;5092863;28;20047;-78
2021/06/05 05:18:28;;;;;;;10.32;7.80;;;21.10;90.50;;;;;;5093221;28;20024;-78
2021/06/05 05:20:55;;;;;;;8.50;7.63;;;21.10;90.30;;;;;;5092541;28;20035;-78
2021/06/05 05:23:22;;;;;;;8.88;6.55;;;21.20;90.10;;;;;;5091560;28;20079;-78
2021/06/05 05:25:48;;;;;;;8.20;7.22;;;21.30;90.00;;;;;;5092812;28;20028;-78
2021/06/05 05:28:16;;;;;;;11.65;6.78;;;21.30;89.60;;;;;;5092964;28;20034;-78
2021/06/05 05:30:49;;;;;;;8.05;7.00;;;21.40;89.30;;;;;;5092932;28;20016;-78
2021/06/05 05:33:16;;;;;;;9.63;8.10;;;21.50;89.10;;;;;;5092891;28;20074;-78
2021/06/05 05:35:42;;;;;;;12.90;8.98;;;21.50;91.70;;;;;;5092894;28;20077;-78
2021/06/05 05:38:09;;;;;;;10.93;9.25;;;21.40;91.80;;;;;;5092932;28;20024;-78
2021/06/05 05:40:37;;;;;;;12.23;9.43;;;21.40;91.80;;;;;;5091435;28;20024;-78
2021/06/05 05:43:03;;;;;;;11.05;9.70;;;21.40;91.90;;;;;;5092853;28;20380;-78
2021/06/05 05:45:29;;;;;;;12.50;10.35;;;21.40;91.50;;;;;;5092892;28;20490;-78
2021/06/05 05:48:00;;;;;;;13.43;9.73;;;21.40;91.40;;;;;;5092760;28;20024;-79
2021/06/05 05:50:28;;;;;;;14.02;10.35;;;21.40;91.30;;;;;;5092856;28;20509;-78
2021/06/05 05:52:54;;;;;;;13.90;10.85;;;21.40;91.30;;;;;;5092635;28;20165;-78
2021/06/05 05:55:21;;;;;;;14.60;9.85;;;21.50;91.30;;;;;;5092614;28;20013;-78
2021/06/05 05:57:48;;;;;;;14.90;11.07;;;21.50;91.30;;;;;;5092898;28;20032;-78
2021/06/05 06:00:19;;;;;;;13.95;10.13;;;21.60;91.30;;;;;;5092539;28;20028;-78
2021/06/05 06:02:45;;;;;;;16.43;10.97;;;21.60;91.60;;;;;;5092685;28;20028;-78
2021/06/05 06:05:11;;;;;;;15.40;10.68;;;21.70;91.70;;;;;;5092899;28;20539;-78
2021/06/05 06:07:38;;;;;;;11.95;10.55;;;21.80;91.80;;;;;;5091343;28;20112;-78
2021/06/05 06:10:08;;;;;;;14.00;11.73;;;21.80;91.50;;;;;;5092593;28;20028;-78
2021/06/05 06:12:35;;;;;;;14.18;11.63;;;21.80;91.80;;;;;;5091191;28;20559;-78
2021/06/05 06:15:00;;;;;;;14.23;11.65;;;21.90;92.20;;;;;;5092342;28;20047;-78
2021/06/05 06:17:26;;;;;;;16.05;12.30;;;21.90;92.10;;;;;;5092536;28;20031;-78
2021/06/05 06:19:52;;;;;;;17.23;13.35;;;22.00;92.70;;;;;;5092170;28;20077;-78
2021/06/05 06:22:18;;;;;;;21.35;12.98;;;22.00;92.00;;;;;;5092193;28;20048;-78
2021/06/05 06:24:43;;;;;;;17.05;13.93;;;22.00;91.80;;;;;;5092579;28;20435;-78
2021/06/05 06:27:10;;;;;;;17.48;13.20;;;22.00;91.50;;;;;;5091350;28;20032;-78
2021/06/05 06:29:36;;;;;;;17.55;13.57;;;21.90;91.40;;;;;;5092411;28;20024;-78
2021/06/05 06:32:02;;;;;;;19.42;13.68;;;22.00;91.60;;;;;;5094081;28;20020;-78
2021/06/05 06:34:29;;;;;;;19.42;13.27;;;22.10;91.80;;;;;;5095673;28;20395;-78
2021/06/05 06:37:01;;;;;;;20.58;14.20;;;22.10;91.50;;;;;;5095888;28;20478;-78
2021/06/05 06:39:27;;;;;;;;;;;22.10;92.00;;;;;;5096116;28;20024;-78
2021/06/05 06:41:53;;;;;;;18.95;14.25;;;22.20;91.60;;;;;;5084954;28;19911;-78
2021/06/05 06:44:19;;;;;;;17.77;12.35;;;22.20;91.50;;;;;;5088221;28;20032;-78
2021/06/05 06:46:47;;;;;;;16.83;13.32;;;22.30;91.40;;;;;;5095585;28;20021;-78
2021/06/05 06:49:15;;;;;;;20.63;13.65;;;22.30;91.90;;;;;;5095920;28;20020;-78
2021/06/05 06:51:41;;;;;;;21.45;15.30;;;22.40;92.40;;;;;;5095625;28;20036;-78
2021/06/05 06:54:09;;;;;;;24.77;16.67;;;22.40;92.50;;;;;;5095454;28;20043;-78
2021/06/05 06:56:35;;;;;;;19.35;15.18;;;22.40;92.20;;;;;;5095231;28;20069;-78
2021/06/05 06:59:02;;;;;;;22.40;16.27;;;22.40;92.30;;;;;;5094204;28;20020;-78
2021/06/05 07:01:28;;;;;;;25.38;16.27;;;22.50;92.30;;;;;;5094860;28;20032;-78
2021/06/05 07:03:54;;;;;;;20.52;15.43;;;22.50;92.20;;;;;;5095074;28;20030;-78
2021/06/05 07:06:21;;;;;;;23.25;16.40;;;22.50;92.30;;;;;;5095455;28;20107;-78
2021/06/05 07:08:49;;;;;;;18.33;15.30;;;22.50;92.80;;;;;;5093368;28;20035;-78
2021/06/05 07:11:18;;;;;;;25.35;18.30;;;22.60;93.00;;;;;;5094832;28;20039;-78
2021/06/05 07:13:44;;;;;;;25.55;16.40;;;22.60;93.20;;;;;;5094996;28;20402;-78
2021/06/05 07:16:11;;;;;;;26.67;18.30;;;22.60;92.70;;;;;;5093502;28;20031;-78
2021/06/05 07:18:37;;;;;;;24.05;16.80;;;22.70;92.80;;;;;;5094908;28;20024;-78
2021/06/05 07:21:06;;;;;;;22.50;16.80;;;22.70;93.00;;;;;;5095015;28;20539;-78
2021/06/05 07:23:34;;;;;;;23.88;16.52;;;22.80;93.10;;;;;;5094920;28;20096;-78
2021/06/05 07:26:02;;;;;;;21.25;15.00;;;22.90;92.90;;;;;;5093843;28;20031;-78
2021/06/05 07:28:37;;;;;;;18.90;15.43;;;22.80;91.50;;;;;;5094897;28;20717;-78
2021/06/05 07:31:06;;;;;;;20.92;14.75;;;22.90;91.30;;;;;;5100277;28;20035;-78
2021/06/05 07:33:32;;;;;;;21.05;15.57;;;22.90;92.00;;;;;;5094380;28;20051;-78
2021/06/05 07:35:59;;;;;;;19.50;15.45;;;23.00;92.00;;;;;;5106875;28;20016;-78
2021/06/05 07:38:28;;;;;;;21.42;15.18;;;23.00;92.30;;;;;;5115396;28;20475;-78
2021/06/05 07:40:55;;;;;;;20.77;15.02;;;23.10;92.40;;;;;;5111988;28;20008;-78
2021/06/05 07:43:24;;;;;;;20.58;15.35;;;23.10;92.70;;;;;;5100984;28;20076;-78
2021/06/05 07:45:51;;;;;;;19.67;15.30;;;23.10;91.40;;;;;;5103706;28;20035;-77
2021/06/05 07:48:17;;;;;;;17.23;14.05;;;23.20;91.50;;;;;;5093423;28;20089;-78
2021/06/05 07:50:44;;;;;;;17.17;14.05;;;23.20;91.30;;;;;;5094319;28;20094;-77
2021/06/05 07:53:09;;;;;;;18.00;14.38;;;23.30;92.00;;;;;;5092234;28;20504;-78
2021/06/05 07:55:35;;;;;;;18.90;13.05;;;23.40;90.80;;;;;;5096080;28;20020;-77
2021/06/05 07:58:01;;;;;;;14.32;11.80;;;23.40;90.30;;;;;;5094248;28;20028;-78
2021/06/05 08:00:30;;;;;;;15.02;12.25;;;23.50;90.50;;;;;;5093896;28;20032;-78
2021/06/05 08:02:56;;;;;;;16.17;12.48;;;23.50;90.20;;;;;;5094541;28;20024;-78
2021/06/05 08:05:22;;;;;;;11.85;10.15;;;23.50;90.10;;;;;;5092962;28;20074;-78
2021/06/05 08:07:49;;;;;;;17.08;12.43;;;23.60;90.10;;;;;;5104721;28;20031;-78
2021/06/05 08:10:16;;;;;;;14.30;11.38;;;23.60;90.90;;;;;;5114536;28;20042;-78
2021/06/05 08:12:42;;;;;;;18.35;12.98;;;23.60;90.20;;;;;;5094569;28;20023;-78
2021/06/05 08:15:12;;;;;;;17.67;12.50;;;23.70;90.00;;;;;;5094066;28;20088;-78
2021/06/05 08:17:38;;;;;;;16.45;12.07;;;23.70;89.30;;;;;;5092626;28;20115;-78
2021/06/05 08:20:07;;;;;;;17.33;12.60;;;23.80;89.30;;;;;;5093864;28;20444;-75
2021/06/05 08:22:33;;;;;;;18.48;11.75;;;23.90;90.40;;;;;;5093854;28;20196;-75
2021/06/05 08:24:59;;;;;;;20.70;12.57;;;23.80;88.50;;;;;;5092325;28;20054;-75
2021/06/05 08:27:25;;;;;;;15.98;11.38;;;23.70;86.90;;;;;;5093683;28;20032;-75
2021/06/05 08:29:53;;;;;;;16.40;12.70;;;23.70;87.50;;;;;;5093709;28;20023;-75
2021/06/05 08:32:19;;;;;;;18.98;13.82;;;23.70;88.50;;;;;;5092427;28;20032;-75
2021/06/05 08:34:45;;;;;;;19.30;14.73;;;23.70;87.80;;;;;;5093669;28;20482;-75
2021/06/05 08:37:11;;;;;;;19.98;13.55;;;23.70;87.40;;;;;;5093551;28;20523;-75
2021/06/05 08:39:37;;;;;;;16.38;12.85;;;23.60;88.50;;;;;;5093556;28;20089;-75
2021/06/05 08:42:05;;;;;;;15.40;12.77;;;23.70;90.20;;;;;;5093314;28;20017;-75
2021/06/05 08:44:41;;;;;;;14.75;11.15;;;23.80;88.60;;;;;;5093628;28;20028;-76
2021/06/05 08:47:25;;;;;;;12.90;10.98;;;23.90;86.50;;;;;;5093703;28;20077;-75
2021/06/05 08:49:51;;;;;;;16.88;12.23;;;23.80;86.40;;;;;;5093351;28;20429;-75
2021/06/05 08:52:17;;;;;;;16.48;12.18;;;23.70;85.60;;;;;;5093273;28;20028;-75
2021/06/05 08:54:50;;;;;;;15.20;11.68;;;23.80;87.30;;;;;;5092397;28;20032;-75
2021/06/05 08:57:29;;;;;;;16.33;10.88;;;23.90;87.10;;;;;;5091535;28;20026;-76
2021/06/05 08:59:58;;;;;;;13.55;11.52;;;24.00;87.70;;;;;;5092849;28;20028;-75
2021/06/05 09:02:27;;;;;;;10.60;9.57;;;24.10;84.70;;;;;;5093355;28;20052;-75
2021/06/05 09:04:57;;;;;;;13.93;9.95;;;24.10;84.30;;;;;;5093121;28;20031;-76
2021/06/05 09:07:24;;;;;;;16.15;12.10;;;24.10;85.10;;;;;;5093140;28;20032;-75
2021/06/05 09:09:51;;;;;;;14.90;11.90;;;24.20;85.80;;;;;;5092505;28;20032;-75
2021/06/05 09:12:18;;;;;;;13.68;11.25;;;24.30;86.00;;;;;;5081234;28;20058;-75
2021/06/05 09:14:47;;;;;;;13.00;10.95;;;24.30;85.40;;;;;;5092708;28;20055;-75
2021/06/05 09:17:17;;;;;;;17.77;12.32;;;24.40;82.60;;;;;;5093118;28;20479;-75
2021/06/05 09:20:09;;;;;;;14.93;11.80;;;24.40;82.90;;;;;;5092812;28;20035;-75
2021/06/05 09:22:38;;;;;;;;;;;24.40;84.20;;;;;;5091535;28;20097;-75
2021/06/05 09:25:38;;;;;;;15.52;11.57;;;24.50;86.50;;;;;;5091502;28;19950;-75
2021/06/05 09:28:14;;;;;;;20.63;12.35;;;24.60;86.30;;;;;;5038456;28;20084;-75
2021/06/05 09:30:42;;;;;;;14.80;12.13;;;24.60;85.80;;;;;;5092452;28;20065;-75
2021/06/05 09:33:11;;;;;;;19.67;11.75;;;24.60;84.50;;;;;;5092654;28;20032;-75
2021/06/05 09:35:46;;;;;;;18.10;10.80;;;24.70;86.80;;;;;;5092919;28;20028;-75
2021/06/05 09:38:25;;;;;;;15.27;10.82;;;24.80;86.70;;;;;;5125128;27;20020;-75
2021/06/05 09:41:28;;;;;;;12.68;11.30;;;24.80;85.00;;;;;;5092018;28;20047;-76
2021/06/05 09:44:12;;;;;;;12.88;9.38;;;24.80;83.50;;;;;;5091215;28;20016;-75
2021/06/05 09:46:38;;;;;;;13.00;10.85;;;24.90;86.50;;;;;;5096758;28;20024;-76
2021/06/05 09:49:28;;;;;;;13.98;11.52;;;25.00;87.60;;;;;;5092532;28;20035;-76
2021/06/05 09:52:23;;;;;;;17.33;12.75;;;25.00;85.80;;;;;;5091979;28;20024;-76
2021/06/05 09:54:50;;;;;;;15.88;12.60;;;25.00;84.80;;;;;;5113347;28;20036;-76
2021/06/05 09:57:30;;;;;;;17.73;12.27;;;25.00;86.10;;;;;;5079974;28;20025;-75
2021/06/05 10:00:16;;;;;;;12.23;10.80;;;25.00;84.60;;;;;;5110422;28;20550;-75
2021/06/05 10:02:48;;;;;;;16.35;12.32;;;25.10;83.60;;;;;;5102789;28;20036;-77
2021/06/05 10:05:28;;;;;;;19.40;12.68;;;25.30;83.20;;;;;;5093184;28;20472;-78
2021/06/05 10:07:56;;;;;;;14.77;11.40;;;25.40;81.80;;;;;;5095548;28;20544;-78
2021/06/05 10:10:22;;;;;;;16.45;11.98;;;25.50;82.80;;;;;;5095104;28;20086;-77
2021/06/05 10:12:50;;;;;;;19.23;11.90;;;25.50;82.10;;;;;;5077931;28;20025;-78
2021/06/05 10:15:39;;;;;;;17.38;11.18;;;25.60;82.50;;;;;;5094161;28;20024;-78
2021/06/05 10:18:16;;;;;;;22.50;13.70;;;25.90;84.00;;;;;;5095104;28;20105;-78
2021/06/05 10:20:48;;;;;;;14.07;11.35;;;26.10;81.20;;;;;;5096167;28;20367;-78
2021/06/05 10:23:21;;;;;;;14.98;11.35;;;26.10;82.40;;;;;;5096467;28;20063;-78
2021/06/05 10:25:55;;;;;;;13.18;9.68;;;26.30;82.20;;;;;;5094394;28;20031;-78
2021/06/05 10:28:45;;;;;;;14.35;11.13;;;26.60;81.00;;;;;;5095664;28;20039;-79
2021/06/05 10:31:14;;;;;;;15.38;11.65;;;26.70;79.50;;;;;;5094338;28;20139;-79
2021/06/05 10:33:47;;;;;;;11.88;10.63;;;26.80;78.80;;;;;;5095884;28;20032;-79
2021/06/05 10:36:43;;;;;;;11.18;9.55;;;26.80;79.80;;;;;;5095629;28;20082;-79
2021/06/05 10:39:12;;;;;;;11.38;8.20;;;27.00;75.20;;;;;;5094224;28;20028;-79
2021/06/05 10:41:51;;;;;;;15.32;11.38;;;27.30;74.60;;;;;;5085823;28;20074;-79
2021/06/05 10:44:17;;;;;;;12.57;10.05;;;27.40;71.80;;;;;;5074260;28;20028;-79
2021/06/05 10:47:00;;;;;;;20.50;10.63;;;27.40;71.90;;;;;;5074170;28;20107;-79
2021/06/05 10:49:42;;;;;;;10.85;8.00;;;27.50;70.10;;;;;;5075460;28;20028;-79
2021/06/05 10:52:35;;;;;;;13.50;9.52;;;27.60;70.90;;;;;;5075371;28;20107;-78
2021/06/05 10:55:14;;;;;;;10.40;9.13;;;27.80;67.10;;;;;;5074252;28;20025;-79
2021/06/05 10:57:49;;;;;;;10.93;9.63;;;27.90;71.40;;;;;;5075522;28;20093;-79
2021/06/05 11:00:41;;;;;;;14.38;9.23;;;28.10;72.60;;;;;;5075524;28;20104;-79
2021/06/05 11:03:09;;;;;;;9.25;8.25;;;28.10;69.40;;;;;;5075355;28;20035;-79
2021/06/05 11:05:36;;;;;;;15.27;11.30;;;28.00;67.70;;;;;;5108018;28;20539;-79
2021/06/05 11:08:07;;;;;;;9.00;7.97;;;27.80;65.20;;;;;;5075194;28;20077;-79
2021/06/05 11:10:45;;;;;;;;;;;27.80;68.50;;;;;;5083731;28;20039;-79
2021/06/05 11:13:11;;;;;;;8.25;7.43;;;27.90;68.40;;;;;;5095150;28;19947;-79
2021/06/05 11:15:58;;;;;;;11.98;7.32;;;27.90;67.30;;;;;;5095459;28;20436;-79
2021/06/05 11:19:07;;;;;;;8.27;7.28;;;28.00;68.80;;;;;;5094832;28;20639;-79
2021/06/05 11:21:44;;;;;;;9.15;6.93;;;28.20;65.30;;;;;;5093655;28;20032;-79
2021/06/05 11:24:22;;;;;;;8.45;6.82;;;28.30;65.60;;;;;;5095219;28;20024;-79
2021/06/05 11:26:55;;;;;;;6.28;5.68;;;28.40;66.90;;;;;;5095007;28;20024;-79
2021/06/05 11:29:21;;;;;;;6.05;5.57;;;28.60;66.40;;;;;;5095242;28;20027;-79
2021/06/05 11:32:19;;;;;;;9.73;6.28;;;28.70;68.30;;;;;;5095123;28;20032;-79
2021/06/05 11:34:44;;;;;;;7.45;6.75;;;28.70;64.80;;;;;;5093060;28;20028;-79
2021/06/05 11:37:13;;;;;;;7.63;5.57;;;28.50;63.70;;;;;;5094601;28;20032;-79
2021/06/05 11:39:45;;;;;;;8.68;6.40;;;28.40;65.50;;;;;;5094596;28;20370;-78
2021/06/05 11:42:17;;;;;;;7.28;4.88;;;28.20;65.10;;;;;;5094905;28;20078;-78
2021/06/05 11:44:44;;;;;;;5.80;5.30;;;28.40;66.00;;;;;;5094759;28;20086;-78
2021/06/05 11:47:16;;;;;;;5.75;5.05;;;28.60;66.90;;;;;;5098494;28;20368;-79
2021/06/05 11:49:42;;;;;;;9.05;6.30;;;28.80;65.70;;;;;;5092999;28;20028;-79
2021/06/05 11:52:25;;;;;;;6.45;5.95;;;28.80;63.70;;;;;;5094489;28;20019;-79
2021/06/05 11:55:06;;;;;;;5.40;4.93;;;29.00;64.10;;;;;;5096095;28;20028;-79
2021/06/05 11:57:39;;;;;;;9.27;6.70;;;29.30;66.00;;;;;;5114891;28;20024;-79
2021/06/05 12:00:17;;;;;;;10.10;6.93;;;29.20;59.70;;;;;;5109983;28;20020;-79
2021/06/05 12:02:45;;;;;;;8.50;5.28;;;29.10;59.80;;;;;;5094408;28;20039;-79
2021/06/05 12:05:21;;;;;;;5.18;4.78;;;29.30;63.70;;;;;;5093296;28;20073;-79
2021/06/05 12:07:47;;;;;;;4.80;4.45;;;29.60;62.80;;;;;;5094163;28;20048;-80
2021/06/05 12:10:31;;;;;;;5.57;4.60;;;29.80;61.80;;;;;;5093676;28;20028;-79
2021/06/05 12:12:57;;;;;;;5.13;4.57;;;29.90;60.20;;;;;;5074388;28;20037;-79
2021/06/05 12:15:35;;;;;;;4.97;4.50;;;29.90;59.10;;;;;;5106748;28;20553;-79
2021/06/05 12:18:06;;;;;;;7.03;6.10;;;30.00;61.80;;;;;;5074109;28;20013;-79
2021/06/05 12:20:42;;;;;;;5.50;5.10;;;29.90;59.30;;;;;;5090364;28;20028;-79
2021/06/05 12:23:27;;;;;;;6.13;5.50;;;29.80;60.30;;;;;;5073654;28;20789;-79
2021/06/05 12:26:10;;;;;;;8.52;6.00;;;29.80;58.90;;;;;;5073880;28;20032;-78
2021/06/05 12:28:48;;;;;;;8.45;6.25;;;30.00;58.90;;;;;;5073177;28;20105;-79
2021/06/05 12:31:26;;;;;;;5.45;4.75;;;30.10;58.60;;;;;;5073474;28;20027;-78
2021/06/05 12:33:55;;;;;;;5.18;4.68;;;30.20;58.70;;;;;;5078881;28;20044;-79
2021/06/05 12:36:42;;;;;;;5.35;4.75;;;30.20;57.90;;;;;;5093838;28;20558;-79
2021/06/05 12:39:23;;;;;;;4.90;4.50;;;30.30;58.10;;;;;;5091869;28;20027;-78
2021/06/05 12:41:51;;;;;;;4.63;4.20;;;30.40;57.10;;;;;;5093274;28;20017;-78
2021/06/05 12:44:26;;;;;;;4.47;3.28;;;30.50;56.80;;;;;;5093595;28;20023;-78
2021/06/05 12:46:52;;;;;;;4.00;3.70;;;30.60;56.70;;;;;;5092239;28;20028;-78
2021/06/05 12:49:26;;;;;;;4.72;3.80;;;30.60;55.50;;;;;;5091642;28;20066;-78
2021/06/05 12:52:00;;;;;;;4.13;3.70;;;30.50;55.50;;;;;;5092678;28;20020;-78
2021/06/05 12:54:39;;;;;;;4.43;4.13;;;30.70;55.60;;;;;;5093246;28;20451;-78
2021/06/05 12:57:39;;;;;;;5.00;4.60;;;30.80;55.80;;;;;;5092029;28;20075;-78